createdAt,value
2023-03-08T00:01:26.676Z,121.70
2023-03-08T00:03:57.270Z,125.50
2023-03-08T00:06:25.604Z,98.20
2023-03-08T00:08:58.208Z,132.40
2023-03-08T00:11:28.381Z,183.90
2023-03-08T00:13:57.068Z,170.50
2023-03-08T00:16:25.617Z,158.60
2023-03-08T00:18:53.927Z,141.10
2023-03-08T00:21:22.073Z,143.90
2023-03-08T00:23:54.311Z,179.60
2023-03-08T00:26:22.773Z,200.60
2023-03-08T00:28:51.571Z,204.70
2023-03-08T00:31:22.315Z,188.80
2023-03-08T00:33:54.832Z,157.80
2023-03-08T00:36:25.982Z,134.70
2023-03-08T00:38:54.104Z,127.30
2023-03-08T00:41:22.346Z,125.60
2023-03-08T00:43:50.838Z,100.30
2023-03-08T00:46:18.942Z,110.00
2023-03-08T00:48:47.873Z,95.50
2023-03-08T00:51:17.820Z,104.70
2023-03-08T00:53:46.471Z,96.00
2023-03-08T00:56:14.606Z,109.20
2023-03-08T00:58:42.815Z,117.70
2023-03-08T01:01:16.916Z,118.00
2023-03-08T01:03:45.808Z,117.20
2023-03-08T01:06:14.934Z,116.90
2023-03-08T01:08:44.933Z,114.60
2023-03-08T01:11:24.582Z,106.10
2023-03-08T01:13:54.137Z,100.20
2023-03-08T01:16:28.033Z,101.00
2023-03-08T01:18:57.604Z,135.60
2023-03-08T01:21:26.142Z,112.70
2023-03-08T01:23:54.477Z,104.30
2023-03-08T01:26:24.371Z,90.40
2023-03-08T01:28:56.635Z,100.20
2023-03-08T01:31:26.252Z,100.30
2023-03-08T01:33:56.888Z,106.20
2023-03-08T01:36:26.001Z,100.10
2023-03-08T01:38:55.702Z,97.10
2023-03-08T01:41:25.890Z,98.50
2023-03-08T01:43:53.959Z,90.60
2023-03-08T01:46:36.202Z,84.00
2023-03-08T01:49:31.854Z,83.90
2023-03-08T01:52:04.867Z,86.30
2023-03-08T01:54:46.337Z,89.70
2023-03-08T01:57:20.762Z,88.80
2023-03-08T01:59:51.353Z,88.30
2023-03-08T02:02:23.084Z,88.40
2023-03-08T02:04:51.175Z,91.60
2023-03-08T02:07:21.463Z,84.00
2023-03-08T02:09:51.239Z,87.60
2023-03-08T02:12:19.278Z,84.40
2023-03-08T02:14:47.747Z,84.60
2023-03-08T02:17:15.947Z,83.70
2023-03-08T02:19:55.894Z,76.20
2023-03-08T02:22:24.548Z,90.40
2023-03-08T02:24:52.931Z,92.10
2023-03-08T02:27:23.577Z,82.50
2023-03-08T02:29:52.219Z,90.80
2023-03-08T02:32:21.861Z,92.00
2023-03-08T02:34:50.127Z,89.20
2023-03-08T02:37:18.177Z,89.80
2023-03-08T02:39:47.721Z,87.50
2023-03-08T02:42:16.264Z,95.90
2023-03-08T02:44:44.327Z,92.70
2023-03-08T02:47:12.884Z,97.10
2023-03-08T02:49:40.929Z,89.30
2023-03-08T02:54:38.139Z,92.50
2023-03-08T02:57:07.652Z,88.20
2023-03-08T03:02:08.300Z,89.60
2023-03-08T03:04:37.695Z,88.80
2023-03-08T03:07:05.800Z,91.50
2023-03-08T03:09:36.004Z,86.10
2023-03-08T03:12:04.516Z,87.50
2023-03-08T03:14:37.412Z,100.70
2023-03-08T03:17:05.508Z,93.50
2023-03-08T03:19:33.730Z,89.70
2023-03-08T03:22:07.802Z,98.50
2023-03-08T03:24:37.652Z,100.90
2023-03-08T03:27:07.312Z,86.70
2023-03-08T03:29:37.850Z,91.40
2023-03-08T03:34:44.439Z,76.20
2023-03-08T03:37:13.086Z,89.50
2023-03-08T03:39:41.819Z,74.40
2023-03-08T03:42:11.964Z,82.50
2023-03-08T03:44:43.750Z,78.70
2023-03-08T03:47:15.199Z,85.20
2023-03-08T03:49:43.617Z,82.80
2023-03-08T03:52:13.142Z,91.20
2023-03-08T03:54:45.980Z,66.70
2023-03-08T03:57:14.226Z,68.10
2023-03-08T04:02:14.625Z,77.00
2023-03-08T04:04:49.738Z,93.20
2023-03-08T04:07:19.062Z,86.10
2023-03-08T04:09:54.654Z,89.50
2023-03-08T04:12:22.715Z,123.70
2023-03-08T04:14:51.310Z,148.00
2023-03-08T04:17:20.703Z,133.50
2023-03-08T04:19:52.779Z,138.00
2023-03-08T04:22:26.174Z,140.90
2023-03-08T04:24:58.937Z,157.70
2023-03-08T04:27:32.847Z,163.30
2023-03-08T04:30:02.293Z,147.30
2023-03-08T04:35:03.121Z,146.40
2023-03-08T04:40:09.405Z,124.60
2023-03-08T04:42:43.378Z,136.60
2023-03-08T04:45:11.991Z,113.10
2023-03-08T04:47:40.853Z,109.00
2023-03-08T04:50:09.931Z,85.50
2023-03-08T04:52:38.078Z,83.10
2023-03-08T04:55:06.699Z,85.10
2023-03-08T04:57:35.537Z,84.60
2023-03-08T05:00:05.930Z,90.00
2023-03-08T05:02:37.330Z,94.20
2023-03-08T05:05:07.062Z,97.70
2023-03-08T05:07:38.750Z,106.70
2023-03-08T05:10:07.409Z,141.10
2023-03-08T05:12:35.878Z,152.50
2023-03-08T05:15:05.200Z,114.70
2023-03-08T05:17:33.595Z,90.00
2023-03-08T05:20:02.124Z,85.30
2023-03-08T05:22:48.097Z,86.10
2023-03-08T05:25:23.573Z,79.70
2023-03-08T05:27:52.362Z,80.80
2023-03-08T05:30:21.580Z,73.20
2023-03-08T05:32:50.391Z,72.10
2023-03-08T05:35:18.533Z,99.30
2023-03-08T05:37:47.531Z,92.80
2023-03-08T05:40:16.570Z,102.30
2023-03-08T05:42:45.101Z,113.20
2023-03-08T05:45:14.770Z,111.90
2023-03-08T05:47:43.077Z,103.20
2023-03-08T05:50:12.345Z,101.30
2023-03-08T05:52:43.042Z,105.30
2023-03-08T05:55:14.241Z,111.00
2023-03-08T05:57:42.662Z,105.20
2023-03-08T06:00:11.879Z,109.70
2023-03-08T06:02:52.122Z,101.80
2023-03-08T06:07:49.239Z,71.30
2023-03-08T06:10:17.696Z,83.00
2023-03-08T06:12:49.087Z,85.70
2023-03-08T06:15:17.837Z,76.20
2023-03-08T06:17:48.962Z,73.80
2023-03-08T06:20:19.612Z,70.20
2023-03-08T06:22:49.968Z,62.40
2023-03-08T06:25:19.906Z,54.90
2023-03-08T06:27:49.364Z,48.60
2023-03-08T06:30:35.410Z,54.40
2023-03-08T06:33:05.652Z,57.90
2023-03-08T06:35:34.002Z,48.80
2023-03-08T06:38:03.127Z,42.10
2023-03-08T06:40:32.831Z,54.00
2023-03-08T06:43:01.645Z,52.50
2023-03-08T06:47:58.269Z,40.80
2023-03-08T06:50:26.812Z,47.20
2023-03-08T06:52:55.132Z,48.20
2023-03-08T06:55:35.871Z,41.20
2023-03-08T06:58:04.298Z,46.90
2023-03-08T07:00:35.119Z,42.60
2023-03-08T07:03:03.310Z,39.00
2023-03-08T07:05:31.677Z,42.40
2023-03-08T07:08:01.573Z,37.80
2023-03-08T07:10:30.252Z,40.00
2023-03-08T07:13:00.700Z,37.20
2023-03-08T07:15:28.811Z,38.80
2023-03-08T07:17:58.708Z,41.80
2023-03-08T07:20:27.698Z,35.70
2023-03-08T07:22:55.984Z,43.20
2023-03-08T07:25:24.127Z,39.60
2023-03-08T07:28:00.228Z,33.30
2023-03-08T07:30:28.674Z,37.60
2023-03-08T07:32:56.948Z,33.00
2023-03-08T07:35:27.776Z,33.10
2023-03-08T07:37:56.255Z,36.00
2023-03-08T07:40:24.400Z,37.80
2023-03-08T07:42:52.332Z,33.70
2023-03-08T07:45:29.910Z,34.90
2023-03-08T07:47:58.706Z,34.80
2023-03-08T07:50:26.865Z,31.10
2023-03-08T07:52:56.364Z,36.00
2023-03-08T07:55:25.676Z,35.40
2023-03-08T07:57:56.887Z,28.20
2023-03-08T08:00:25.710Z,33.60
2023-03-08T08:02:54.199Z,34.60
2023-03-08T08:05:23.272Z,40.30
2023-03-08T08:10:21.457Z,36.10
2023-03-08T08:12:50.638Z,34.60
2023-03-08T08:15:19.261Z,39.50
2023-03-08T08:17:52.575Z,39.50
2023-03-08T08:22:52.102Z,34.90
2023-03-08T08:25:21.156Z,37.40
2023-03-08T08:27:50.749Z,34.30
2023-03-08T08:30:19.446Z,39.40
2023-03-08T08:32:47.638Z,40.80
2023-03-08T08:35:16.406Z,37.00
2023-03-08T08:37:44.879Z,36.70
2023-03-08T08:40:13.246Z,42.60
2023-03-08T08:42:41.454Z,38.90
2023-03-08T08:45:10.188Z,35.80
2023-03-08T08:47:38.348Z,39.40
2023-03-08T08:50:07.089Z,40.60
2023-03-08T08:55:06.633Z,37.40
2023-03-08T09:00:08.277Z,37.80
2023-03-08T09:02:36.826Z,30.70
2023-03-08T09:05:06.141Z,36.70
2023-03-08T09:07:34.338Z,31.90
2023-03-08T09:10:02.680Z,32.20
2023-03-08T09:12:31.201Z,31.30
2023-03-08T09:14:59.887Z,35.70
2023-03-08T09:17:28.151Z,26.90
2023-03-08T09:19:56.625Z,34.50
2023-03-08T09:22:25.533Z,38.20
2023-03-08T09:27:21.617Z,30.10
2023-03-08T09:32:18.873Z,31.80
2023-03-08T09:34:47.519Z,31.60
2023-03-08T09:37:15.718Z,30.70
2023-03-08T09:39:44.983Z,36.50
2023-03-08T09:42:25.172Z,29.00
2023-03-08T09:45:14.447Z,31.60
2023-03-08T09:48:11.147Z,27.30
2023-03-08T09:50:59.349Z,30.30
2023-03-08T09:53:38.511Z,30.20
2023-03-08T09:56:12.353Z,31.20
2023-03-08T09:58:55.933Z,31.10
2023-03-08T10:01:38.543Z,26.30
2023-03-08T10:04:29.097Z,29.20
2023-03-08T10:07:17.573Z,29.60
2023-03-08T10:09:53.074Z,29.30
2023-03-08T10:12:49.982Z,27.90
2023-03-08T10:15:25.066Z,28.00
2023-03-08T10:18:21.233Z,28.80
2023-03-08T10:20:49.723Z,23.50
2023-03-08T10:23:21.689Z,24.40
2023-03-08T10:25:50.441Z,18.00
2023-03-08T10:28:20.854Z,18.30
2023-03-08T10:31:28.156Z,16.60
2023-03-08T10:34:03.999Z,19.60
2023-03-08T10:36:34.888Z,19.30
2023-03-08T10:39:09.759Z,19.50
2023-03-08T10:41:43.552Z,16.50
2023-03-08T10:44:14.378Z,17.30
2023-03-08T10:46:47.666Z,16.20
2023-03-08T10:49:17.557Z,13.60
2023-03-08T10:52:01.223Z,13.90
2023-03-08T10:54:30.061Z,18.50
2023-03-08T10:56:59.607Z,13.70
2023-03-08T10:59:32.656Z,18.50
2023-03-08T11:02:13.419Z,15.10
2023-03-08T11:04:53.615Z,17.00
2023-03-08T11:07:29.431Z,18.80
2023-03-08T11:10:13.045Z,13.20
2023-03-08T11:12:41.709Z,15.40
2023-03-08T11:15:16.562Z,15.50
2023-03-08T11:17:56.436Z,12.70
2023-03-08T11:21:07.878Z,13.00
2023-03-08T11:24:08.800Z,17.40
2023-03-08T11:27:14.769Z,13.50
2023-03-08T11:29:52.530Z,13.80
2023-03-08T11:32:45.078Z,14.20
2023-03-08T11:35:28.122Z,15.40
2023-03-08T11:38:00.153Z,12.50
2023-03-08T11:40:40.349Z,14.90
2023-03-08T11:43:30.579Z,13.20
2023-03-08T11:46:23.239Z,13.70
2023-03-08T11:49:01.255Z,14.90
2023-03-08T11:51:51.593Z,14.60
2023-03-08T11:54:38.550Z,15.40
2023-03-08T11:57:12.581Z,15.60
2023-03-08T11:59:50.640Z,14.60
2023-03-08T12:02:20.988Z,14.40
2023-03-08T12:05:12.440Z,14.60
2023-03-08T12:07:48.597Z,16.20
2023-03-08T12:10:51.085Z,17.10
2023-03-08T12:13:29.742Z,15.80
2023-03-08T12:16:04.736Z,15.00
2023-03-08T12:18:34.511Z,15.40
2023-03-08T12:21:35.756Z,17.50
2023-03-08T12:24:32.453Z,15.10
2023-03-08T12:27:06.609Z,12.60
2023-03-08T12:30:15.594Z,15.70
2023-03-08T12:32:43.869Z,19.60
2023-03-08T12:35:22.327Z,19.60
2023-03-08T12:37:59.561Z,16.10
2023-03-08T12:40:44.363Z,15.40
2023-03-08T12:43:34.299Z,14.90
2023-03-08T12:46:06.668Z,14.40
2023-03-08T12:48:40.562Z,15.00
2023-03-08T12:51:14.674Z,14.90
2023-03-08T12:53:44.162Z,14.30
2023-03-08T12:56:12.488Z,16.00
2023-03-08T12:58:56.572Z,17.70
2023-03-08T13:01:24.823Z,15.20
2023-03-08T13:03:54.208Z,14.90
2023-03-08T13:06:22.876Z,13.10
2023-03-08T13:08:54.378Z,13.00
2023-03-08T13:11:26.522Z,14.70
2023-03-08T13:13:58.653Z,15.60
2023-03-08T13:16:30.112Z,22.90
2023-03-08T13:19:21.651Z,17.90
2023-03-08T13:22:16.335Z,12.30
2023-03-08T13:24:49.844Z,14.60
2023-03-08T13:27:47.797Z,15.50
2023-03-08T13:30:36.992Z,15.30
2023-03-08T13:33:13.438Z,17.70
2023-03-08T13:35:41.442Z,15.80
2023-03-08T13:38:20.326Z,15.70
2023-03-08T13:40:52.793Z,12.80
2023-03-08T13:43:25.056Z,16.10
2023-03-08T13:45:54.947Z,13.90
2023-03-08T13:48:23.128Z,15.80
2023-03-08T13:50:51.842Z,12.10
2023-03-08T13:53:22.463Z,12.50
2023-03-08T13:55:57.196Z,15.60
2023-03-08T13:58:35.696Z,13.60
2023-03-08T14:01:18.979Z,14.90
2023-03-08T14:03:47.560Z,12.80
2023-03-08T14:06:33.761Z,13.30
2023-03-08T14:09:03.930Z,16.70
2023-03-08T14:11:34.139Z,17.00
2023-03-08T14:14:07.528Z,14.00
2023-03-08T14:16:37.751Z,15.10
2023-03-08T14:19:15.031Z,14.80
2023-03-08T14:21:55.408Z,15.30
2023-03-08T14:24:34.625Z,15.20
2023-03-08T14:27:30.644Z,15.40
2023-03-08T14:30:04.088Z,11.80
2023-03-08T14:32:32.618Z,14.90
2023-03-08T14:35:25.248Z,15.30
2023-03-08T14:37:56.979Z,14.40
2023-03-08T14:40:31.088Z,12.80
2023-03-08T14:43:02.417Z,11.90
2023-03-08T14:45:40.484Z,15.50
2023-03-08T14:48:25.139Z,14.40
2023-03-08T14:50:55.823Z,13.20
2023-03-08T14:53:31.173Z,12.30
2023-03-08T14:56:00.474Z,12.40
2023-03-08T14:58:31.142Z,13.50
2023-03-08T15:01:01.386Z,15.70
2023-03-08T15:03:30.353Z,11.80
2023-03-08T15:05:59.248Z,15.90
2023-03-08T15:08:28.862Z,14.50
2023-03-08T15:10:57.185Z,17.00
2023-03-08T15:13:27.244Z,12.10
2023-03-08T15:15:55.870Z,14.60
2023-03-08T15:18:24.982Z,9.90
2023-03-08T15:20:53.157Z,14.30
2023-03-08T15:23:26.223Z,10.90
2023-03-08T15:25:54.639Z,13.20
2023-03-08T15:28:23.718Z,13.30
2023-03-08T15:30:52.899Z,14.90
2023-03-08T15:33:21.686Z,13.90
2023-03-08T15:35:50.573Z,13.50
2023-03-08T15:38:19.008Z,13.00
2023-03-08T15:40:52.282Z,17.50
2023-03-08T15:43:20.878Z,14.00
2023-03-08T15:45:48.865Z,19.40
2023-03-08T15:48:18.243Z,15.90
2023-03-08T15:50:46.678Z,16.50
2023-03-08T15:53:29.665Z,19.80
2023-03-08T15:56:03.160Z,17.30
2023-03-08T15:58:31.767Z,15.10
2023-03-08T16:01:00.589Z,15.30
2023-03-08T16:03:31.200Z,16.40
2023-03-08T16:05:59.732Z,15.30
2023-03-08T16:08:29.445Z,11.70
2023-03-08T16:11:03.791Z,17.50
2023-03-08T16:13:34.548Z,13.20
2023-03-08T16:16:03.568Z,14.20
2023-03-08T16:18:32.241Z,14.70
2023-03-08T16:21:00.732Z,13.20
2023-03-08T16:23:29.110Z,18.40
2023-03-08T16:26:14.777Z,19.80
2023-03-08T16:28:46.569Z,17.90
2023-03-08T16:31:15.105Z,16.90
2023-03-08T16:36:12.449Z,12.70
2023-03-08T16:38:43.404Z,16.60
2023-03-08T16:41:13.493Z,23.50
2023-03-08T16:43:48.300Z,25.20
2023-03-08T16:46:19.156Z,30.70
2023-03-08T16:48:49.761Z,23.80
2023-03-08T16:51:20.386Z,24.90
2023-03-08T16:53:49.077Z,27.10
2023-03-08T16:56:26.870Z,25.20
2023-03-08T16:58:56.985Z,30.60
2023-03-08T17:01:26.749Z,28.40
2023-03-08T17:03:56.101Z,30.30
2023-03-08T17:06:27.036Z,27.30
2023-03-08T17:08:57.488Z,31.10
2023-03-08T17:11:27.486Z,24.20
2023-03-08T17:13:58.652Z,24.00
2023-03-08T17:16:28.356Z,22.80
2023-03-08T17:18:56.635Z,21.40
2023-03-08T17:21:24.784Z,18.80
2023-03-08T17:26:22.535Z,24.50
2023-03-08T17:28:52.177Z,19.20
2023-03-08T17:31:21.614Z,29.20
2023-03-08T17:33:50.759Z,20.40
2023-03-08T17:36:22.506Z,23.50
2023-03-08T17:38:55.538Z,27.60
2023-03-08T17:41:25.901Z,24.00
2023-03-08T17:43:54.155Z,30.10
2023-03-08T17:46:23.699Z,23.70
2023-03-08T17:48:53.303Z,23.00
2023-03-08T17:51:24.378Z,29.70
2023-03-08T17:53:52.736Z,29.30
2023-03-08T17:56:22.756Z,25.30
2023-03-08T17:58:54.588Z,25.30
2023-03-08T18:01:24.399Z,23.10
2023-03-08T18:03:53.059Z,28.70
2023-03-08T18:09:10.674Z,30.10
2023-03-08T18:11:38.824Z,26.80
2023-03-08T18:14:16.837Z,28.20
2023-03-08T18:16:45.038Z,21.90
2023-03-08T18:19:15.658Z,20.60
2023-03-08T18:21:43.827Z,19.40
2023-03-08T18:24:12.142Z,23.80
2023-03-08T18:26:41.400Z,18.50
2023-03-08T18:29:09.516Z,20.10
2023-03-08T18:31:40.329Z,19.30
2023-03-08T18:34:09.291Z,21.00
2023-03-08T18:36:37.591Z,18.00
2023-03-08T18:39:07.060Z,20.50
2023-03-08T18:41:36.149Z,15.80
2023-03-08T18:44:10.671Z,18.30
2023-03-08T18:46:39.524Z,17.70
2023-03-08T18:49:11.143Z,17.10
2023-03-08T18:51:40.268Z,14.50
2023-03-08T18:54:20.494Z,15.50
2023-03-08T18:56:53.903Z,16.30
2023-03-08T18:59:22.151Z,15.30
2023-03-08T19:01:52.257Z,14.80
2023-03-08T19:04:20.436Z,13.30
2023-03-08T19:06:48.403Z,14.40
2023-03-08T19:09:17.255Z,13.60
2023-03-08T19:11:45.986Z,16.40
2023-03-08T19:14:14.292Z,14.80
2023-03-08T19:16:44.732Z,14.50
2023-03-08T19:19:14.662Z,15.30
2023-03-08T19:21:46.827Z,11.70
2023-03-08T19:24:16.845Z,14.20
2023-03-08T19:26:47.551Z,16.40
2023-03-08T19:29:29.712Z,11.40
2023-03-08T19:31:59.769Z,14.30
2023-03-08T19:34:34.333Z,15.70
2023-03-08T19:37:05.207Z,13.80
2023-03-08T19:39:35.058Z,15.40
2023-03-08T19:42:05.909Z,18.40
2023-03-08T19:44:34.347Z,22.40
2023-03-08T19:47:04.710Z,21.40
2023-03-08T19:49:35.937Z,23.90
2023-03-08T19:52:05.150Z,23.20
2023-03-08T19:54:34.123Z,22.30
2023-03-08T19:57:03.814Z,22.30
2023-03-08T19:59:38.663Z,20.10
2023-03-08T20:02:08.833Z,22.80
2023-03-08T20:04:37.122Z,21.20
2023-03-08T20:07:07.250Z,22.80
2023-03-08T20:09:36.173Z,21.70
2023-03-08T20:12:05.967Z,17.10
2023-03-08T20:14:35.045Z,20.70
2023-03-08T20:17:05.096Z,17.60
2023-03-08T20:19:36.920Z,27.40
2023-03-08T20:22:05.125Z,55.20
2023-03-08T20:24:35.497Z,42.70
2023-03-08T20:27:05.362Z,25.80
2023-03-08T20:29:34.560Z,18.50
2023-03-08T20:32:03.319Z,16.50
2023-03-08T20:34:32.629Z,16.80
2023-03-08T20:37:00.563Z,22.40
2023-03-08T20:39:29.092Z,19.10
2023-03-08T20:41:58.706Z,16.40
2023-03-08T20:44:27.773Z,19.20
2023-03-08T20:46:55.813Z,21.10
2023-03-08T20:49:25.452Z,19.30
2023-03-08T20:51:54.582Z,16.20
2023-03-08T20:54:23.285Z,17.90
2023-03-08T20:56:51.297Z,15.70
2023-03-08T20:59:24.200Z,18.10
2023-03-08T21:01:55.934Z,16.40
2023-03-08T21:04:24.310Z,17.60
2023-03-08T21:06:55.068Z,16.60
2023-03-08T21:09:23.131Z,35.80
2023-03-08T21:11:52.169Z,33.50
2023-03-08T21:14:21.578Z,17.50
2023-03-08T21:16:51.785Z,16.10
2023-03-08T21:19:20.468Z,21.10
2023-03-08T21:21:48.754Z,17.30
2023-03-08T21:24:18.949Z,21.90
2023-03-08T21:26:46.914Z,13.30
2023-03-08T21:29:18.058Z,14.00
2023-03-08T21:31:50.550Z,15.10
2023-03-08T21:34:20.051Z,13.90
2023-03-08T21:36:48.174Z,14.40
2023-03-08T21:39:16.335Z,14.30
2023-03-08T21:41:46.793Z,17.50
2023-03-08T21:44:17.560Z,13.40
2023-03-08T21:46:46.684Z,15.80
2023-03-08T21:49:17.795Z,16.40
2023-03-08T21:51:45.820Z,14.30
2023-03-08T21:54:15.418Z,13.30
2023-03-08T21:56:43.518Z,14.60
2023-03-08T21:59:13.034Z,15.20
2023-03-08T22:01:41.845Z,15.20
2023-03-08T22:04:09.968Z,17.30
2023-03-08T22:06:37.977Z,18.40
2023-03-08T22:09:10.101Z,16.60
2023-03-08T22:14:06.349Z,16.00
2023-03-08T22:16:37.977Z,14.70
2023-03-08T22:19:06.114Z,13.10
2023-03-08T22:21:34.399Z,15.70
2023-03-08T22:24:02.921Z,13.40
2023-03-08T22:26:31.624Z,14.80
2023-03-08T22:28:59.854Z,12.80
2023-03-08T22:31:29.337Z,15.80
2023-03-08T22:33:58.711Z,16.20
2023-03-08T22:36:30.013Z,16.30
2023-03-08T22:38:58.195Z,17.80
2023-03-08T22:41:26.985Z,18.60
2023-03-08T22:46:26.003Z,18.20
2023-03-08T22:48:58.515Z,24.40
2023-03-08T22:51:28.380Z,82.80
2023-03-08T22:53:56.777Z,39.30
2023-03-08T22:56:29.591Z,25.40
2023-03-08T22:58:57.879Z,24.30
2023-03-08T23:01:26.580Z,29.10
2023-03-08T23:06:28.148Z,19.50
2023-03-08T23:08:57.206Z,26.70
2023-03-08T23:11:29.911Z,25.60
2023-03-08T23:13:58.111Z,24.10
2023-03-08T23:16:26.280Z,23.60
2023-03-08T23:18:54.566Z,27.00
2023-03-08T23:21:23.759Z,25.60
2023-03-08T23:23:52.382Z,24.40
2023-03-08T23:26:21.376Z,27.20
2023-03-08T23:28:49.587Z,28.40
2023-03-08T23:31:20.366Z,23.20
2023-03-08T23:33:49.102Z,25.30
2023-03-08T23:36:18.485Z,30.10
2023-03-08T23:38:46.504Z,29.00
2023-03-08T23:41:14.862Z,26.70
2023-03-08T23:43:43.030Z,29.70
2023-03-08T23:46:20.129Z,27.40
2023-03-08T23:48:48.343Z,31.40
2023-03-08T23:51:18.264Z,29.30
2023-03-08T23:53:53.824Z,34.10
2023-03-08T23:56:31.046Z,31.40
2023-03-08T23:59:01.370Z,32.40
